sensor_id;sensor_type;location;lat;lon;timestamp;P1;P2;P0
73146;PMS7003;61345;48.922;2.244;2023-06-14T00:00:52;5.00;4.00;4.00
73146;PMS7003;61345;48.922;2.244;2023-06-14T00:03:18;5.00;4.00;2.75
73146;PMS7003;61345;48.922;2.244;2023-06-14T00:05:47;5.50;4.00;3.50
73146;PMS7003;61345;48.922;2.244;2023-06-14T00:08:13;6.25;5.00;3.75
73146;PMS7003;61345;48.922;2.244;2023-06-14T00:10:38;11.00;4.50;4.00
73146;PMS7003;61345;48.922;2.244;2023-06-14T00:13:06;4.50;4.25;3.00
73146;PMS7003;61345;48.922;2.244;2023-06-14T00:15:34;9.00;4.75;3.75
73146;PMS7003;61345;48.922;2.244;2023-06-14T00:18:00;5.50;5.00;4.00
73146;PMS7003;61345;48.922;2.244;2023-06-14T00:20:31;8.25;4.50;3.50
73146;PMS7003;61345;48.922;2.244;2023-06-14T00:23:00;6.00;4.75;4.00
73146;PMS7003;61345;48.922;2.244;2023-06-14T00:25:28;6.00;5.00;4.00
73146;PMS7003;61345;48.922;2.244;2023-06-14T00:27:56;8.00;6.75;4.50
73146;PMS7003;61345;48.922;2.244;2023-06-14T00:30:21;9.50;5.50;4.00
73146;PMS7003;61345;48.922;2.244;2023-06-14T00:32:47;7.00;4.33;3.67
73146;PMS7003;61345;48.922;2.244;2023-06-14T00:35:13;9.00;4.50;4.00
73146;PMS7003;61345;48.922;2.244;2023-06-14T00:37:40;5.75;4.25;3.00
73146;PMS7003;61345;48.922;2.244;2023-06-14T00:40:06;5.50;4.00;3.25
73146;PMS7003;61345;48.922;2.244;2023-06-14T00:42:31;4.75;3.25;2.00
73146;PMS7003;61345;48.922;2.244;2023-06-14T00:44:59;7.00;5.75;4.25
73146;PMS7003;61345;48.922;2.244;2023-06-14T00:47:24;6.50;4.25;3.00
73146;PMS7003;61345;48.922;2.244;2023-06-14T00:49:50;10.25;5.00;4.25
73146;PMS7003;61345;48.922;2.244;2023-06-14T00:52:18;5.50;4.25;3.50
73146;PMS7003;61345;48.922;2.244;2023-06-14T00:54:46;5.00;4.25;3.00
73146;PMS7003;61345;48.922;2.244;2023-06-14T00:57:12;6.50;5.75;3.75
73146;PMS7003;61345;48.922;2.244;2023-06-14T00:59:41;5.75;5.00;4.00
73146;PMS7003;61345;48.922;2.244;2023-06-14T01:02:07;4.75;4.25;3.00
73146;PMS7003;61345;48.922;2.244;2023-06-14T01:04:32;10.00;4.00;3.33
73146;PMS7003;61345;48.922;2.244;2023-06-14T01:09:30;6.50;5.50;4.50
73146;PMS7003;61345;48.922;2.244;2023-06-14T01:12:04;6.50;5.25;4.00
73146;PMS7003;61345;48.922;2.244;2023-06-14T01:14:32;5.00;5.00;3.75
73146;PMS7003;61345;48.922;2.244;2023-06-14T01:16:59;5.25;5.25;4.75
73146;PMS7003;61345;48.922;2.244;2023-06-14T01:19:25;8.00;6.50;4.50
73146;PMS7003;61345;48.922;2.244;2023-06-14T01:21:53;7.75;6.00;4.00
73146;PMS7003;61345;48.922;2.244;2023-06-14T01:24:20;8.50;5.00;4.00
73146;PMS7003;61345;48.922;2.244;2023-06-14T01:26:51;6.75;4.25;3.75
73146;PMS7003;61345;48.922;2.244;2023-06-14T01:29:20;8.25;6.25;5.00
73146;PMS7003;61345;48.922;2.244;2023-06-14T01:31:46;8.00;5.75;3.75
73146;PMS7003;61345;48.922;2.244;2023-06-14T01:34:12;7.75;5.75;4.75
73146;PMS7003;61345;48.922;2.244;2023-06-14T01:36:37;6.67;6.00;5.00
73146;PMS7003;61345;48.922;2.244;2023-06-14T01:39:05;6.00;6.00;4.00
73146;PMS7003;61345;48.922;2.244;2023-06-14T01:41:31;7.75;7.00;4.00
73146;PMS7003;61345;48.922;2.244;2023-06-14T01:43:56;7.00;6.25;4.75
73146;PMS7003;61345;48.922;2.244;2023-06-14T01:46:25;7.25;4.25;3.25
73146;PMS7003;61345;48.922;2.244;2023-06-14T01:48:51;6.00;5.00;4.00
73146;PMS7003;61345;48.922;2.244;2023-06-14T01:51:16;10.00;5.50;3.50
73146;PMS7003;61345;48.922;2.244;2023-06-14T01:53:42;9.67;8.00;6.33
73146;PMS7003;61345;48.922;2.244;2023-06-14T01:56:07;9.67;7.33;5.33
73146;PMS7003;61345;48.922;2.244;2023-06-14T01:58:32;8.67;6.67;5.00
73146;PMS7003;61345;48.922;2.244;2023-06-14T02:00:58;11.00;7.00;5.25
73146;PMS7003;61345;48.922;2.244;2023-06-14T02:03:25;8.75;6.50;5.25
73146;PMS7003;61345;48.922;2.244;2023-06-14T02:05:51;7.50;7.50;5.50
73146;PMS7003;61345;48.922;2.244;2023-06-14T02:08:16;10.75;8.00;6.50
73146;PMS7003;61345;48.922;2.244;2023-06-14T02:10:42;9.00;7.25;5.00
73146;PMS7003;61345;48.922;2.244;2023-06-14T02:13:07;8.33;5.67;5.00
73146;PMS7003;61345;48.922;2.244;2023-06-14T02:15:32;9.00;8.67;6.33
73146;PMS7003;61345;48.922;2.244;2023-06-14T02:18:03;10.25;9.00;5.75
73146;PMS7003;61345;48.922;2.244;2023-06-14T02:20:33;11.00;10.00;6.75
73146;PMS7003;61345;48.922;2.244;2023-06-14T02:22:58;10.00;6.50;5.25
73146;PMS7003;61345;48.922;2.244;2023-06-14T02:25:23;7.67;7.33;6.00
73146;PMS7003;61345;48.922;2.244;2023-06-14T02:27:48;8.50;6.00;5.00
73146;PMS7003;61345;48.922;2.244;2023-06-14T02:30:14;14.50;7.25;6.00
73146;PMS7003;61345;48.922;2.244;2023-06-14T02:32:40;9.75;9.75;7.00
73146;PMS7003;61345;48.922;2.244;2023-06-14T02:35:07;11.25;8.75;6.00
73146;PMS7003;61345;48.922;2.244;2023-06-14T02:37:33;10.00;8.00;6.00
73146;PMS7003;61345;48.922;2.244;2023-06-14T02:39:58;12.75;8.50;7.00
73146;PMS7003;61345;48.922;2.244;2023-06-14T02:42:24;11.67;7.00;5.00
73146;PMS7003;61345;48.922;2.244;2023-06-14T02:44:49;10.33;7.67;6.00
73146;PMS7003;61345;48.922;2.244;2023-06-14T02:47:16;8.50;7.25;6.00
73146;PMS7003;61345;48.922;2.244;2023-06-14T02:49:41;9.75;7.50;6.00
73146;PMS7003;61345;48.922;2.244;2023-06-14T02:52:07;9.00;7.33;5.33
73146;PMS7003;61345;48.922;2.244;2023-06-14T02:54:34;9.00;8.25;5.75
73146;PMS7003;61345;48.922;2.244;2023-06-14T02:56:59;11.75;8.00;5.50
73146;PMS7003;61345;48.922;2.244;2023-06-14T02:59:24;7.50;5.25;4.50
73146;PMS7003;61345;48.922;2.244;2023-06-14T03:01:50;10.00;8.00;6.50
73146;PMS7003;61345;48.922;2.244;2023-06-14T03:04:15;16.50;9.75;6.75
73146;PMS7003;61345;48.922;2.244;2023-06-14T03:06:41;9.00;7.00;5.50
73146;PMS7003;61345;48.922;2.244;2023-06-14T03:09:09;13.25;7.00;6.00
73146;PMS7003;61345;48.922;2.244;2023-06-14T03:11:34;12.25;10.00;7.25
73146;PMS7003;61345;48.922;2.244;2023-06-14T03:14:00;10.00;7.50;6.25
73146;PMS7003;61345;48.922;2.244;2023-06-14T03:16:26;15.50;7.00;5.75
73146;PMS7003;61345;48.922;2.244;2023-06-14T03:18:53;11.75;7.00;5.75
73146;PMS7003;61345;48.922;2.244;2023-06-14T03:21:19;10.00;7.33;6.00
73146;PMS7003;61345;48.922;2.244;2023-06-14T03:23:45;11.00;8.50;7.00
73146;PMS7003;61345;48.922;2.244;2023-06-14T03:26:10;11.25;8.75;7.00
73146;PMS7003;61345;48.922;2.244;2023-06-14T03:28:40;10.00;8.25;5.50
73146;PMS7003;61345;48.922;2.244;2023-06-14T03:31:05;11.75;9.25;7.00
73146;PMS7003;61345;48.922;2.244;2023-06-14T03:33:30;8.67;6.67;5.00
73146;PMS7003;61345;48.922;2.244;2023-06-14T03:35:55;10.67;9.00;7.00
73146;PMS7003;61345;48.922;2.244;2023-06-14T03:38:21;14.25;10.00;7.75
73146;PMS7003;61345;48.922;2.244;2023-06-14T03:40:46;7.25;7.25;6.00
73146;PMS7003;61345;48.922;2.244;2023-06-14T03:43:12;11.67;9.33;6.00
73146;PMS7003;61345;48.922;2.244;2023-06-14T03:45:39;13.00;7.00;5.00
73146;PMS7003;61345;48.922;2.244;2023-06-14T03:48:05;11.00;9.75;6.75
73146;PMS7003;61345;48.922;2.244;2023-06-14T03:50:31;8.50;7.00;6.00
73146;PMS7003;61345;48.922;2.244;2023-06-14T03:52:57;9.50;9.50;6.25
73146;PMS7003;61345;48.922;2.244;2023-06-14T03:55:22;14.67;10.00;7.33
73146;PMS7003;61345;48.922;2.244;2023-06-14T03:57:50;8.50;7.75;6.00
73146;PMS7003;61345;48.922;2.244;2023-06-14T04:00:15;12.50;8.25;6.25
73146;PMS7003;61345;48.922;2.244;2023-06-14T04:02:40;11.75;9.50;6.25
73146;PMS7003;61345;48.922;2.244;2023-06-14T04:05:06;7.50;7.50;5.25
73146;PMS7003;61345;48.922;2.244;2023-06-14T04:07:33;14.75;10.00;7.25
73146;PMS7003;61345;48.922;2.244;2023-06-14T04:10:07;12.00;9.25;6.50
73146;PMS7003;61345;48.922;2.244;2023-06-14T04:12:35;7.50;5.75;4.75
73146;PMS7003;61345;48.922;2.244;2023-06-14T04:15:01;10.25;8.00;6.00
73146;PMS7003;61345;48.922;2.244;2023-06-14T04:17:28;12.50;8.75;7.00
73146;PMS7003;61345;48.922;2.244;2023-06-14T04:19:54;13.50;8.75;7.00
73146;PMS7003;61345;48.922;2.244;2023-06-14T04:22:19;13.25;9.75;6.00
73146;PMS7003;61345;48.922;2.244;2023-06-14T04:24:44;12.33;11.00;6.67
73146;PMS7003;61345;48.922;2.244;2023-06-14T04:27:12;11.75;7.25;5.75
73146;PMS7003;61345;48.922;2.244;2023-06-14T04:29:39;13.75;10.00;6.00
73146;PMS7003;61345;48.922;2.244;2023-06-14T04:32:04;10.67;9.00;6.33
73146;PMS7003;61345;48.922;2.244;2023-06-14T04:34:37;7.00;7.00;5.50
73146;PMS7003;61345;48.922;2.244;2023-06-14T04:37:02;11.25;9.00;6.00
73146;PMS7003;61345;48.922;2.244;2023-06-14T04:39:31;11.25;9.00;7.00
73146;PMS7003;61345;48.922;2.244;2023-06-14T04:41:56;9.67;8.00;6.67
73146;PMS7003;61345;48.922;2.244;2023-06-14T04:44:22;15.25;10.00;7.25
73146;PMS7003;61345;48.922;2.244;2023-06-14T04:46:49;16.50;9.25;6.25
73146;PMS7003;61345;48.922;2.244;2023-06-14T04:49:15;13.75;9.00;6.25
73146;PMS7003;61345;48.922;2.244;2023-06-14T04:51:41;10.00;8.00;6.25
73146;PMS7003;61345;48.922;2.244;2023-06-14T04:54:06;8.75;8.50;6.75
73146;PMS7003;61345;48.922;2.244;2023-06-14T04:56:34;12.25;10.50;7.00
73146;PMS7003;61345;48.922;2.244;2023-06-14T04:59:00;9.75;9.00;6.00
73146;PMS7003;61345;48.922;2.244;2023-06-14T05:01:28;13.75;10.00;8.00
73146;PMS7003;61345;48.922;2.244;2023-06-14T05:03:53;11.00;9.50;6.75
73146;PMS7003;61345;48.922;2.244;2023-06-14T05:06:18;13.00;11.00;8.00
73146;PMS7003;61345;48.922;2.244;2023-06-14T05:08:43;10.67;10.00;8.00
73146;PMS7003;61345;48.922;2.244;2023-06-14T05:11:09;7.75;7.00;6.00
73146;PMS7003;61345;48.922;2.244;2023-06-14T05:13:34;13.75;10.75;6.75
73146;PMS7003;61345;48.922;2.244;2023-06-14T05:16:00;11.25;10.75;7.25
73146;PMS7003;61345;48.922;2.244;2023-06-14T05:18:30;11.00;6.75;4.75
73146;PMS7003;61345;48.922;2.244;2023-06-14T05:20:56;14.25;11.00;8.00
73146;PMS7003;61345;48.922;2.244;2023-06-14T05:23:21;15.33;11.00;8.00
73146;PMS7003;61345;48.922;2.244;2023-06-14T05:25:55;17.00;7.67;6.00
73146;PMS7003;61345;48.922;2.244;2023-06-14T05:28:31;13.75;9.00;6.50
73146;PMS7003;61345;48.922;2.244;2023-06-14T05:30:57;11.67;8.33;6.67
73146;PMS7003;61345;48.922;2.244;2023-06-14T05:33:23;14.00;9.00;8.00
73146;PMS7003;61345;48.922;2.244;2023-06-14T05:35:48;10.25;10.00;7.00
73146;PMS7003;61345;48.922;2.244;2023-06-14T05:38:13;14.00;10.00;8.00
73146;PMS7003;61345;48.922;2.244;2023-06-14T05:40:39;15.33;11.67;8.33
73146;PMS7003;61345;48.922;2.244;2023-06-14T05:43:04;12.50;10.00;6.25
73146;PMS7003;61345;48.922;2.244;2023-06-14T05:45:29;15.00;9.33;7.33
73146;PMS7003;61345;48.922;2.244;2023-06-14T05:47:54;13.25;11.50;8.00
73146;PMS7003;61345;48.922;2.244;2023-06-14T05:50:20;12.00;11.00;7.67
73146;PMS7003;61345;48.922;2.244;2023-06-14T05:52:45;11.75;10.25;9.00
73146;PMS7003;61345;48.922;2.244;2023-06-14T05:55:10;16.75;10.00;8.00
73146;PMS7003;61345;48.922;2.244;2023-06-14T05:57:37;16.00;10.25;7.00
73146;PMS7003;61345;48.922;2.244;2023-06-14T06:00:02;11.00;9.00;6.50
73146;PMS7003;61345;48.922;2.244;2023-06-14T06:02:34;12.50;12.00;9.75
73146;PMS7003;61345;48.922;2.244;2023-06-14T06:04:59;11.67;11.00;8.00
73146;PMS7003;61345;48.922;2.244;2023-06-14T06:07:25;10.00;7.50;6.50
73146;PMS7003;61345;48.922;2.244;2023-06-14T06:09:53;12.25;10.75;7.75
73146;PMS7003;61345;48.922;2.244;2023-06-14T06:12:18;16.00;11.00;8.67
73146;PMS7003;61345;48.922;2.244;2023-06-14T06:14:43;16.00;10.75;8.25
73146;PMS7003;61345;48.922;2.244;2023-06-14T06:17:08;10.00;9.00;6.00
73146;PMS7003;61345;48.922;2.244;2023-06-14T06:19:34;12.67;9.33;7.00
73146;PMS7003;61345;48.922;2.244;2023-06-14T06:21:59;10.00;6.00;5.67
73146;PMS7003;61345;48.922;2.244;2023-06-14T06:24:24;10.00;8.50;7.00
73146;PMS7003;61345;48.922;2.244;2023-06-14T06:26:50;13.00;6.75;5.25
73146;PMS7003;61345;48.922;2.244;2023-06-14T06:29:15;13.33;8.33;6.00
73146;PMS7003;61345;48.922;2.244;2023-06-14T06:31:40;10.00;9.00;7.00
73146;PMS7003;61345;48.922;2.244;2023-06-14T06:34:05;9.67;7.00;5.33
73146;PMS7003;61345;48.922;2.244;2023-06-14T06:36:31;10.00;7.00;5.33
73146;PMS7003;61345;48.922;2.244;2023-06-14T06:38:56;11.67;10.00;6.33
73146;PMS7003;61345;48.922;2.244;2023-06-14T06:41:21;11.00;9.33;6.67
73146;PMS7003;61345;48.922;2.244;2023-06-14T06:43:46;7.00;7.00;6.00
73146;PMS7003;61345;48.922;2.244;2023-06-14T06:46:11;10.33;6.00;5.00
73146;PMS7003;61345;48.922;2.244;2023-06-14T06:48:37;8.00;7.00;4.50
73146;PMS7003;61345;48.922;2.244;2023-06-14T06:51:02;4.33;2.33;2.00
73146;PMS7003;61345;48.922;2.244;2023-06-14T06:53:28;7.67;5.00;4.00
73146;PMS7003;61345;48.922;2.244;2023-06-14T06:55:53;6.33;6.33;5.00
73146;PMS7003;61345;48.922;2.244;2023-06-14T06:58:18;6.00;4.67;4.00
73146;PMS7003;61345;48.922;2.244;2023-06-14T07:00:43;11.67;8.33;6.00
73146;PMS7003;61345;48.922;2.244;2023-06-14T07:03:08;6.67;6.67;4.00
73146;PMS7003;61345;48.922;2.244;2023-06-14T07:05:34;8.67;7.00;5.00
73146;PMS7003;61345;48.922;2.244;2023-06-14T07:07:59;8.00;5.67;4.00
73146;PMS7003;61345;48.922;2.244;2023-06-14T07:10:25;9.00;6.00;4.50
73146;PMS7003;61345;48.922;2.244;2023-06-14T07:12:50;9.00;5.75;4.75
73146;PMS7003;61345;48.922;2.244;2023-06-14T07:15:15;5.50;5.50;4.75
73146;PMS7003;61345;48.922;2.244;2023-06-14T07:17:41;6.75;6.25;5.00
73146;PMS7003;61345;48.922;2.244;2023-06-14T07:20:06;10.50;5.50;3.50
73146;PMS7003;61345;48.922;2.244;2023-06-14T07:22:41;9.00;5.00;4.00
73146;PMS7003;61345;48.922;2.244;2023-06-14T07:25:10;8.50;5.75;4.00
73146;PMS7003;61345;48.922;2.244;2023-06-14T07:27:38;7.50;4.75;3.50
73146;PMS7003;61345;48.922;2.244;2023-06-14T07:30:04;7.67;5.33;4.33
73146;PMS7003;61345;48.922;2.244;2023-06-14T07:32:29;3.50;1.50;0.50
73146;PMS7003;61345;48.922;2.244;2023-06-14T07:34:55;6.33;5.67;3.67
73146;PMS7003;61345;48.922;2.244;2023-06-14T07:37:20;7.00;7.00;5.00
73146;PMS7003;61345;48.922;2.244;2023-06-14T07:39:45;8.33;6.00;4.33
73146;PMS7003;61345;48.922;2.244;2023-06-14T07:42:10;6.00;6.00;4.67
73146;PMS7003;61345;48.922;2.244;2023-06-14T07:44:35;6.00;5.00;3.67
73146;PMS7003;61345;48.922;2.244;2023-06-14T07:47:01;7.75;5.00;4.00
73146;PMS7003;61345;48.922;2.244;2023-06-14T07:49:27;7.50;6.00;5.00
73146;PMS7003;61345;48.922;2.244;2023-06-14T07:51:52;7.75;6.00;4.00
73146;PMS7003;61345;48.922;2.244;2023-06-14T07:54:18;11.25;8.00;5.75
73146;PMS7003;61345;48.922;2.244;2023-06-14T07:56:43;9.33;7.33;4.00
73146;PMS7003;61345;48.922;2.244;2023-06-14T07:59:08;9.33;5.00;4.00
73146;PMS7003;61345;48.922;2.244;2023-06-14T08:01:34;8.00;6.00;4.00
73146;PMS7003;61345;48.922;2.244;2023-06-14T08:03:59;4.00;4.00;3.00
73146;PMS7003;61345;48.922;2.244;2023-06-14T08:06:24;11.00;5.67;4.00
73146;PMS7003;61345;48.922;2.244;2023-06-14T08:08:50;7.00;6.75;5.25
73146;PMS7003;61345;48.922;2.244;2023-06-14T08:11:15;5.33;4.33;3.67
73146;PMS7003;61345;48.922;2.244;2023-06-14T08:13:40;5.00;4.00;3.00
73146;PMS7003;61345;48.922;2.244;2023-06-14T08:16:05;4.00;4.00;3.33
73146;PMS7003;61345;48.922;2.244;2023-06-14T08:18:30;6.00;4.00;3.33
73146;PMS7003;61345;48.922;2.244;2023-06-14T08:20:55;7.33;5.00;3.33
73146;PMS7003;61345;48.922;2.244;2023-06-14T08:23:22;5.00;4.00;3.75
73146;PMS7003;61345;48.922;2.244;2023-06-14T08:25:47;6.75;6.75;5.00
73146;PMS7003;61345;48.922;2.244;2023-06-14T08:28:13;3.75;3.75;3.00
73146;PMS7003;61345;48.922;2.244;2023-06-14T08:30:38;5.67;5.33;4.00
73146;PMS7003;61345;48.922;2.244;2023-06-14T08:33:03;7.00;6.00;4.33
73146;PMS7003;61345;48.922;2.244;2023-06-14T08:35:28;6.00;5.67;4.67
73146;PMS7003;61345;48.922;2.244;2023-06-14T08:37:54;5.25;5.25;3.50
73146;PMS7003;61345;48.922;2.244;2023-06-14T08:40:20;6.67;5.00;4.00
73146;PMS7003;61345;48.922;2.244;2023-06-14T08:42:55;7.00;5.25;4.00
73146;PMS7003;61345;48.922;2.244;2023-06-14T08:45:21;10.00;7.00;4.25
73146;PMS7003;61345;48.922;2.244;2023-06-14T08:47:47;7.00;5.75;4.25
73146;PMS7003;61345;48.922;2.244;2023-06-14T08:50:17;3.25;3.25;3.00
73146;PMS7003;61345;48.922;2.244;2023-06-14T08:52:45;6.00;4.00;4.00
73146;PMS7003;61345;48.922;2.244;2023-06-14T08:55:14;9.50;5.75;4.00
73146;PMS7003;61345;48.922;2.244;2023-06-14T08:57:41;8.25;7.50;5.75
73146;PMS7003;61345;48.922;2.244;2023-06-14T09:00:06;7.00;5.00;4.00
73146;PMS7003;61345;48.922;2.244;2023-06-14T09:02:38;5.50;4.00;3.00
73146;PMS7003;61345;48.922;2.244;2023-06-14T09:05:08;10.00;5.00;4.00
73146;PMS7003;61345;48.922;2.244;2023-06-14T09:07:33;5.00;5.00;4.00
73146;PMS7003;61345;48.922;2.244;2023-06-14T09:10:11;8.67;7.00;5.00
73146;PMS7003;61345;48.922;2.244;2023-06-14T09:12:37;5.00;5.00;3.75
73146;PMS7003;61345;48.922;2.244;2023-06-14T09:15:03;4.50;4.50;3.75
73146;PMS7003;61345;48.922;2.244;2023-06-14T09:17:32;5.00;4.00;4.00
73146;PMS7003;61345;48.922;2.244;2023-06-14T09:19:58;4.25;4.00;3.75
73146;PMS7003;61345;48.922;2.244;2023-06-14T09:22:23;5.25;4.75;4.00
73146;PMS7003;61345;48.922;2.244;2023-06-14T09:24:48;5.67;5.00;4.00
73146;PMS7003;61345;48.922;2.244;2023-06-14T09:27:16;5.67;5.67;5.00
73146;PMS7003;61345;48.922;2.244;2023-06-14T09:29:41;5.00;5.00;4.00
73146;PMS7003;61345;48.922;2.244;2023-06-14T09:32:07;7.33;5.00;4.33
73146;PMS7003;61345;48.922;2.244;2023-06-14T09:34:32;7.75;5.50;2.75
73146;PMS7003;61345;48.922;2.244;2023-06-14T09:36:58;6.75;5.00;3.50
73146;PMS7003;61345;48.922;2.244;2023-06-14T09:39:23;4.67;4.00;3.00
73146;PMS7003;61345;48.922;2.244;2023-06-14T09:41:50;5.75;4.00;3.25
73146;PMS7003;61345;48.922;2.244;2023-06-14T09:44:15;6.00;3.67;3.00
73146;PMS7003;61345;48.922;2.244;2023-06-14T09:46:42;5.50;3.75;3.00
73146;PMS7003;61345;48.922;2.244;2023-06-14T09:49:08;6.67;4.00;4.00
73146;PMS7003;61345;48.922;2.244;2023-06-14T09:51:33;5.50;3.50;3.00
73146;PMS7003;61345;48.922;2.244;2023-06-14T09:54:00;6.25;5.25;4.00
73146;PMS7003;61345;48.922;2.244;2023-06-14T09:56:29;3.50;3.50;3.00
73146;PMS7003;61345;48.922;2.244;2023-06-14T09:58:58;6.75;4.00;3.00
73146;PMS7003;61345;48.922;2.244;2023-06-14T10:01:24;8.50;6.00;3.75
73146;PMS7003;61345;48.922;2.244;2023-06-14T10:03:50;6.00;3.00;3.00
73146;PMS7003;61345;48.922;2.244;2023-06-14T10:06:18;4.75;3.75;2.00
73146;PMS7003;61345;48.922;2.244;2023-06-14T10:08:45;6.25;3.75;3.00
73146;PMS7003;61345;48.922;2.244;2023-06-14T10:11:11;5.25;4.00;3.00
73146;PMS7003;61345;48.922;2.244;2023-06-14T10:13:37;4.00;4.00;3.00
73146;PMS7003;61345;48.922;2.244;2023-06-14T10:16:12;3.33;3.33;2.33
73146;PMS7003;61345;48.922;2.244;2023-06-14T10:23:55;7.50;5.75;4.75
73146;PMS7003;61345;48.922;2.244;2023-06-14T10:26:22;5.50;4.00;3.00
73146;PMS7003;61345;48.922;2.244;2023-06-14T10:29:30;7.00;4.75;3.75
73146;PMS7003;61345;48.922;2.244;2023-06-14T10:31:43;4.00;4.00;3.00
73146;PMS7003;61345;48.922;2.244;2023-06-14T10:34:08;5.50;4.00;3.00
73146;PMS7003;61345;48.922;2.244;2023-06-14T10:36:34;8.00;5.00;4.00
73146;PMS7003;61345;48.922;2.244;2023-06-14T10:39:37;5.00;5.00;4.00
73146;PMS7003;61345;48.922;2.244;2023-06-14T10:41:52;5.00;4.50;3.25
73146;PMS7003;61345;48.922;2.244;2023-06-14T10:46:46;6.25;3.00;2.00
73146;PMS7003;61345;48.922;2.244;2023-06-14T10:49:12;6.00;3.25;2.75
73146;PMS7003;61345;48.922;2.244;2023-06-14T10:51:41;6.67;4.33;3.00
73146;PMS7003;61345;48.922;2.244;2023-06-14T10:54:13;3.25;1.50;1.25
73146;PMS7003;61345;48.922;2.244;2023-06-14T10:56:45;6.25;4.75;3.00
73146;PMS7003;61345;48.922;2.244;2023-06-14T10:59:11;6.25;4.75;3.00
73146;PMS7003;61345;48.922;2.244;2023-06-14T11:01:37;4.00;4.00;3.00
73146;PMS7003;61345;48.922;2.244;2023-06-14T11:04:09;6.50;4.25;3.00
73146;PMS7003;61345;48.922;2.244;2023-06-14T11:06:44;5.00;4.00;3.00
73146;PMS7003;61345;48.922;2.244;2023-06-14T11:11:55;7.00;5.00;3.00
73146;PMS7003;61345;48.922;2.244;2023-06-14T11:14:21;3.00;3.00;2.25
73146;PMS7003;61345;48.922;2.244;2023-06-14T11:16:49;6.00;4.33;3.00
73146;PMS7003;61345;48.922;2.244;2023-06-14T11:19:14;8.50;3.50;2.50
73146;PMS7003;61345;48.922;2.244;2023-06-14T11:21:42;4.00;4.00;3.00
73146;PMS7003;61345;48.922;2.244;2023-06-14T11:24:09;4.33;3.00;2.00
73146;PMS7003;61345;48.922;2.244;2023-06-14T11:26:37;7.00;4.00;3.00
73146;PMS7003;61345;48.922;2.244;2023-06-14T11:29:02;9.75;3.00;3.00
73146;PMS7003;61345;48.922;2.244;2023-06-14T11:31:27;5.33;3.33;3.00
73146;PMS7003;61345;48.922;2.244;2023-06-14T11:33:53;5.00;4.00;3.00
73146;PMS7003;61345;48.922;2.244;2023-06-14T11:36:19;7.00;4.00;3.00
73146;PMS7003;61345;48.922;2.244;2023-06-14T11:38:44;5.00;3.33;2.33
73146;PMS7003;61345;48.922;2.244;2023-06-14T11:41:10;3.00;3.00;1.25
73146;PMS7003;61345;48.922;2.244;2023-06-14T11:43:35;6.00;5.00;3.00
73146;PMS7003;61345;48.922;2.244;2023-06-14T11:46:01;5.50;5.00;4.00
73146;PMS7003;61345;48.922;2.244;2023-06-14T11:48:40;4.00;4.00;2.00
73146;PMS7003;61345;48.922;2.244;2023-06-14T11:51:08;5.25;5.00;3.75
73146;PMS7003;61345;48.922;2.244;2023-06-14T11:53:34;9.50;4.00;3.00
73146;PMS7003;61345;48.922;2.244;2023-06-14T11:55:59;6.50;4.75;3.00
73146;PMS7003;61345;48.922;2.244;2023-06-14T11:58:25;7.75;4.75;3.50
73146;PMS7003;61345;48.922;2.244;2023-06-14T12:00:51;3.75;3.25;2.75
73146;PMS7003;61345;48.922;2.244;2023-06-14T12:03:20;3.50;2.50;2.25
73146;PMS7003;61345;48.922;2.244;2023-06-14T12:05:47;7.50;5.00;3.00
73146;PMS7003;61345;48.922;2.244;2023-06-14T12:08:12;7.00;6.33;5.00
73146;PMS7003;61345;48.922;2.244;2023-06-14T12:10:42;5.50;4.50;3.00
73146;PMS7003;61345;48.922;2.244;2023-06-14T12:13:10;6.25;3.75;2.75
73146;PMS7003;61345;48.922;2.244;2023-06-14T12:15:36;5.00;4.25;3.75
73146;PMS7003;61345;48.922;2.244;2023-06-14T12:18:02;5.75;4.00;2.75
73146;PMS7003;61345;48.922;2.244;2023-06-14T12:20:31;6.00;5.00;3.00
73146;PMS7003;61345;48.922;2.244;2023-06-14T12:22:58;6.50;6.00;4.50
73146;PMS7003;61345;48.922;2.244;2023-06-14T12:25:27;5.00;4.25;3.25
73146;PMS7003;61345;48.922;2.244;2023-06-14T12:27:53;5.50;4.25;3.50
73146;PMS7003;61345;48.922;2.244;2023-06-14T12:30:19;6.50;5.00;3.75
73146;PMS7003;61345;48.922;2.244;2023-06-14T12:32:44;8.25;5.00;3.00
73146;PMS7003;61345;48.922;2.244;2023-06-14T12:35:10;5.75;5.50;4.00
73146;PMS7003;61345;48.922;2.244;2023-06-14T12:37:35;3.50;1.00;0.00
73146;PMS7003;61345;48.922;2.244;2023-06-14T12:40:01;6.75;3.75;3.00
73146;PMS7003;61345;48.922;2.244;2023-06-14T12:42:26;6.00;5.00;3.50
73146;PMS7003;61345;48.922;2.244;2023-06-14T12:44:52;3.67;3.67;3.00
73146;PMS7003;61345;48.922;2.244;2023-06-14T12:47:17;6.00;5.00;4.00
73146;PMS7003;61345;48.922;2.244;2023-06-14T12:49:42;4.75;4.25;3.50
73146;PMS7003;61345;48.922;2.244;2023-06-14T12:52:07;6.00;6.00;4.00
73146;PMS7003;61345;48.922;2.244;2023-06-14T12:54:33;6.00;4.00;3.00
73146;PMS7003;61345;48.922;2.244;2023-06-14T12:56:58;5.50;5.50;4.00
73146;PMS7003;61345;48.922;2.244;2023-06-14T12:59:23;6.67;4.00;3.00
73146;PMS7003;61345;48.922;2.244;2023-06-14T13:01:48;5.67;5.00;4.33
73146;PMS7003;61345;48.922;2.244;2023-06-14T13:04:15;7.00;4.00;3.00
73146;PMS7003;61345;48.922;2.244;2023-06-14T13:06:40;6.25;5.25;3.25
73146;PMS7003;61345;48.922;2.244;2023-06-14T13:09:05;9.33;5.33;4.00
73146;PMS7003;61345;48.922;2.244;2023-06-14T13:11:30;5.00;3.67;3.00
73146;PMS7003;61345;48.922;2.244;2023-06-14T13:13:56;4.33;4.00;3.00
73146;PMS7003;61345;48.922;2.244;2023-06-14T13:16:21;7.00;5.67;4.00
73146;PMS7003;61345;48.922;2.244;2023-06-14T13:18:46;6.00;5.00;3.75
73146;PMS7003;61345;48.922;2.244;2023-06-14T13:21:11;4.67;3.00;3.00
73146;PMS7003;61345;48.922;2.244;2023-06-14T13:23:37;8.00;4.33;3.00
73146;PMS7003;61345;48.922;2.244;2023-06-14T13:26:02;8.00;6.00;4.67
73146;PMS7003;61345;48.922;2.244;2023-06-14T13:28:27;5.67;4.33;3.00
73146;PMS7003;61345;48.922;2.244;2023-06-14T13:30:52;4.50;2.75;2.00
73146;PMS7003;61345;48.922;2.244;2023-06-14T13:33:18;4.00;3.33;2.67
73146;PMS7003;61345;48.922;2.244;2023-06-14T13:35:43;10.00;4.33;4.00
73146;PMS7003;61345;48.922;2.244;2023-06-14T13:38:09;6.67;5.00;3.67
73146;PMS7003;61345;48.922;2.244;2023-06-14T13:40:35;5.25;5.00;3.00
73146;PMS7003;61345;48.922;2.244;2023-06-14T13:43:00;7.00;4.00;4.00
73146;PMS7003;61345;48.922;2.244;2023-06-14T13:45:25;5.50;3.75;3.00
73146;PMS7003;61345;48.922;2.244;2023-06-14T13:47:50;4.75;4.75;4.00
73146;PMS7003;61345;48.922;2.244;2023-06-14T13:50:16;4.75;4.25;3.50
73146;PMS7003;61345;48.922;2.244;2023-06-14T13:52:42;8.00;3.25;3.00
73146;PMS7003;61345;48.922;2.244;2023-06-14T13:55:07;5.67;4.67;3.67
73146;PMS7003;61345;48.922;2.244;2023-06-14T13:57:33;7.50;5.50;4.50
73146;PMS7003;61345;48.922;2.244;2023-06-14T13:59:58;3.50;3.50;2.50
73146;PMS7003;61345;48.922;2.244;2023-06-14T14:02:28;6.00;6.00;4.00
73146;PMS7003;61345;48.922;2.244;2023-06-14T14:05:14;5.75;4.50;3.25
73146;PMS7003;61345;48.922;2.244;2023-06-14T14:07:39;5.00;4.00;3.00
73146;PMS7003;61345;48.922;2.244;2023-06-14T14:10:05;5.33;5.33;4.00
73146;PMS7003;61345;48.922;2.244;2023-06-14T14:12:30;4.50;4.00;3.00
73146;PMS7003;61345;48.922;2.244;2023-06-14T14:14:55;5.00;5.00;3.00
73146;PMS7003;61345;48.922;2.244;2023-06-14T14:17:21;6.25;4.25;3.50
73146;PMS7003;61345;48.922;2.244;2023-06-14T14:19:46;7.25;4.00;2.00
73146;PMS7003;61345;48.922;2.244;2023-06-14T14:22:14;5.25;4.00;2.50
73146;PMS7003;61345;48.922;2.244;2023-06-14T14:24:39;7.50;4.75;3.50
73146;PMS7003;61345;48.922;2.244;2023-06-14T14:27:04;5.75;4.00;3.00